sensor_id;sensor_type;location;lat;lon;timestamp;P1;durP1;ratioP1;P2;durP2;ratioP2
35056;SDS011;21241;51.828;19.574;2023-07-13T00:02:24;12.90;;;11.80;;
35056;SDS011;21241;51.828;19.574;2023-07-13T00:04:54;12.90;;;11.90;;
35056;SDS011;21241;51.828;19.574;2023-07-13T00:07:22;12.30;;;11.40;;
35056;SDS011;21241;51.828;19.574;2023-07-13T00:09:51;12.30;;;11.30;;
35056;SDS011;21241;51.828;19.574;2023-07-13T00:12:23;13.30;;;12.20;;
35056;SDS011;21241;51.828;19.574;2023-07-13T00:14:51;13.00;;;12.00;;
35056;SDS011;21241;51.828;19.574;2023-07-13T00:17:19;14.00;;;12.60;;
35056;SDS011;21241;51.828;19.574;2023-07-13T00:19:47;14.50;;;13.30;;
35056;SDS011;21241;51.828;19.574;2023-07-13T00:22:15;12.90;;;11.80;;
35056;SDS011;21241;51.828;19.574;2023-07-13T00:24:43;13.80;;;12.70;;
35056;SDS011;21241;51.828;19.574;2023-07-13T00:27:11;13.70;;;12.60;;
35056;SDS011;21241;51.828;19.574;2023-07-13T00:29:39;13.40;;;12.30;;
35056;SDS011;21241;51.828;19.574;2023-07-13T00:32:08;12.60;;;11.30;;
35056;SDS011;21241;51.828;19.574;2023-07-13T00:34:37;12.50;;;11.60;;
35056;SDS011;21241;51.828;19.574;2023-07-13T00:37:06;12.50;;;11.60;;
35056;SDS011;21241;51.828;19.574;2023-07-13T00:39:34;12.20;;;11.40;;
35056;SDS011;21241;51.828;19.574;2023-07-13T00:42:03;12.90;;;12.10;;
35056;SDS011;21241;51.828;19.574;2023-07-13T00:44:31;13.20;;;12.20;;
35056;SDS011;21241;51.828;19.574;2023-07-13T00:46:59;13.10;;;12.20;;
35056;SDS011;21241;51.828;19.574;2023-07-13T00:49:29;12.60;;;11.60;;
35056;SDS011;21241;51.828;19.574;2023-07-13T00:51:59;12.80;;;11.70;;
35056;SDS011;21241;51.828;19.574;2023-07-13T00:54:31;13.10;;;12.20;;
35056;SDS011;21241;51.828;19.574;2023-07-13T00:57:06;13.00;;;12.00;;
35056;SDS011;21241;51.828;19.574;2023-07-13T00:59:36;11.70;;;10.90;;
35056;SDS011;21241;51.828;19.574;2023-07-13T01:02:05;12.50;;;11.50;;
35056;SDS011;21241;51.828;19.574;2023-07-13T01:04:33;12.30;;;11.50;;
35056;SDS011;21241;51.828;19.574;2023-07-13T01:07:00;13.40;;;12.40;;
35056;SDS011;21241;51.828;19.574;2023-07-13T01:09:28;12.50;;;11.60;;
35056;SDS011;21241;51.828;19.574;2023-07-13T01:11:56;11.70;;;10.70;;
35056;SDS011;21241;51.828;19.574;2023-07-13T01:14:24;12.20;;;11.30;;
35056;SDS011;21241;51.828;19.574;2023-07-13T01:16:52;12.00;;;11.10;;
35056;SDS011;21241;51.828;19.574;2023-07-13T01:22:05;11.70;;;10.90;;
35056;SDS011;21241;51.828;19.574;2023-07-13T01:24:39;12.50;;;11.50;;
35056;SDS011;21241;51.828;19.574;2023-07-13T01:27:11;11.80;;;10.90;;
35056;SDS011;21241;51.828;19.574;2023-07-13T01:29:43;11.20;;;10.40;;
35056;SDS011;21241;51.828;19.574;2023-07-13T01:32:16;11.60;;;10.80;;
35056;SDS011;21241;51.828;19.574;2023-07-13T01:34:51;11.60;;;10.80;;
35056;SDS011;21241;51.828;19.574;2023-07-13T01:37:23;11.50;;;10.70;;
35056;SDS011;21241;51.828;19.574;2023-07-13T01:39:52;11.70;;;10.90;;
35056;SDS011;21241;51.828;19.574;2023-07-13T01:42:20;11.80;;;10.90;;
35056;SDS011;21241;51.828;19.574;2023-07-13T01:45:06;12.30;;;11.40;;
35056;SDS011;21241;51.828;19.574;2023-07-13T01:47:34;11.80;;;11.00;;
35056;SDS011;21241;51.828;19.574;2023-07-13T01:50:02;11.10;;;10.40;;
35056;SDS011;21241;51.828;19.574;2023-07-13T01:52:31;10.90;;;10.10;;
35056;SDS011;21241;51.828;19.574;2023-07-13T01:54:58;11.10;;;10.30;;
35056;SDS011;21241;51.828;19.574;2023-07-13T01:57:26;11.10;;;10.30;;
35056;SDS011;21241;51.828;19.574;2023-07-13T01:59:54;11.10;;;10.20;;
35056;SDS011;21241;51.828;19.574;2023-07-13T02:02:22;11.10;;;10.30;;
35056;SDS011;21241;51.828;19.574;2023-07-13T02:04:50;10.50;;;9.70;;
35056;SDS011;21241;51.828;19.574;2023-07-13T02:07:18;11.00;;;10.20;;
35056;SDS011;21241;51.828;19.574;2023-07-13T02:09:46;11.10;;;10.20;;
35056;SDS011;21241;51.828;19.574;2023-07-13T02:12:14;10.80;;;10.00;;
35056;SDS011;21241;51.828;19.574;2023-07-13T02:14:42;11.00;;;10.20;;
35056;SDS011;21241;51.828;19.574;2023-07-13T02:17:10;11.20;;;10.50;;
35056;SDS011;21241;51.828;19.574;2023-07-13T02:19:38;10.80;;;10.00;;
35056;SDS011;21241;51.828;19.574;2023-07-13T02:22:06;11.20;;;10.30;;
35056;SDS011;21241;51.828;19.574;2023-07-13T02:24:34;11.40;;;10.50;;
35056;SDS011;21241;51.828;19.574;2023-07-13T02:27:01;12.30;;;11.30;;
35056;SDS011;21241;51.828;19.574;2023-07-13T02:29:29;11.20;;;10.40;;
35056;SDS011;21241;51.828;19.574;2023-07-13T02:31:57;11.50;;;10.60;;
35056;SDS011;21241;51.828;19.574;2023-07-13T02:34:25;12.20;;;11.20;;
35056;SDS011;21241;51.828;19.574;2023-07-13T02:36:53;12.90;;;12.00;;
35056;SDS011;21241;51.828;19.574;2023-07-13T02:39:21;12.10;;;10.90;;
35056;SDS011;21241;51.828;19.574;2023-07-13T02:41:49;12.70;;;11.50;;
35056;SDS011;21241;51.828;19.574;2023-07-13T02:44:16;12.50;;;11.50;;
35056;SDS011;21241;51.828;19.574;2023-07-13T02:46:44;12.70;;;11.50;;
35056;SDS011;21241;51.828;19.574;2023-07-13T02:49:14;12.50;;;11.40;;
35056;SDS011;21241;51.828;19.574;2023-07-13T02:51:42;12.90;;;11.90;;
35056;SDS011;21241;51.828;19.574;2023-07-13T02:54:10;12.10;;;11.10;;
35056;SDS011;21241;51.828;19.574;2023-07-13T02:56:39;12.80;;;11.80;;
35056;SDS011;21241;51.828;19.574;2023-07-13T02:59:07;12.30;;;11.30;;
35056;SDS011;21241;51.828;19.574;2023-07-13T03:01:35;12.40;;;11.30;;
35056;SDS011;21241;51.828;19.574;2023-07-13T03:04:04;12.80;;;11.70;;
35056;SDS011;21241;51.828;19.574;2023-07-13T03:06:34;12.30;;;11.40;;
35056;SDS011;21241;51.828;19.574;2023-07-13T03:09:03;12.70;;;11.80;;
35056;SDS011;21241;51.828;19.574;2023-07-13T03:11:31;12.10;;;11.30;;
35056;SDS011;21241;51.828;19.574;2023-07-13T03:14:13;13.80;;;12.80;;
35056;SDS011;21241;51.828;19.574;2023-07-13T03:16:43;13.50;;;12.50;;
35056;SDS011;21241;51.828;19.574;2023-07-13T03:19:12;14.00;;;13.00;;
35056;SDS011;21241;51.828;19.574;2023-07-13T03:21:41;13.50;;;12.60;;
35056;SDS011;21241;51.828;19.574;2023-07-13T03:24:09;13.50;;;12.60;;
35056;SDS011;21241;51.828;19.574;2023-07-13T03:26:37;13.80;;;12.80;;
35056;SDS011;21241;51.828;19.574;2023-07-13T03:29:06;13.50;;;12.60;;
35056;SDS011;21241;51.828;19.574;2023-07-13T03:31:35;14.60;;;13.50;;
35056;SDS011;21241;51.828;19.574;2023-07-13T03:34:04;14.30;;;13.30;;
35056;SDS011;21241;51.828;19.574;2023-07-13T03:36:32;13.50;;;12.30;;
35056;SDS011;21241;51.828;19.574;2023-07-13T03:39:04;13.70;;;12.40;;
35056;SDS011;21241;51.828;19.574;2023-07-13T03:41:46;13.50;;;12.30;;
35056;SDS011;21241;51.828;19.574;2023-07-13T03:44:15;11.70;;;10.80;;
35056;SDS011;21241;51.828;19.574;2023-07-13T03:46:44;11.20;;;10.30;;
35056;SDS011;21241;51.828;19.574;2023-07-13T03:49:13;10.80;;;9.80;;
35056;SDS011;21241;51.828;19.574;2023-07-13T03:51:41;10.80;;;10.00;;
35056;SDS011;21241;51.828;19.574;2023-07-13T03:54:09;11.00;;;10.10;;
35056;SDS011;21241;51.828;19.574;2023-07-13T03:56:37;11.30;;;10.30;;
35056;SDS011;21241;51.828;19.574;2023-07-13T03:59:06;12.40;;;11.30;;
35056;SDS011;21241;51.828;19.574;2023-07-13T04:01:34;11.90;;;10.80;;
35056;SDS011;21241;51.828;19.574;2023-07-13T04:04:02;11.50;;;10.50;;
35056;SDS011;21241;51.828;19.574;2023-07-13T04:06:32;12.00;;;11.10;;
35056;SDS011;21241;51.828;19.574;2023-07-13T04:09:00;11.70;;;10.80;;
35056;SDS011;21241;51.828;19.574;2023-07-13T04:11:31;10.90;;;10.00;;
35056;SDS011;21241;51.828;19.574;2023-07-13T04:14:00;12.00;;;11.10;;
35056;SDS011;21241;51.828;19.574;2023-07-13T04:16:28;11.60;;;10.70;;
35056;SDS011;21241;51.828;19.574;2023-07-13T04:18:56;11.90;;;10.90;;
35056;SDS011;21241;51.828;19.574;2023-07-13T04:21:28;11.10;;;10.30;;
35056;SDS011;21241;51.828;19.574;2023-07-13T04:23:58;12.80;;;11.90;;
35056;SDS011;21241;51.828;19.574;2023-07-13T04:26:26;12.70;;;11.50;;
35056;SDS011;21241;51.828;19.574;2023-07-13T04:28:53;12.50;;;11.40;;
35056;SDS011;21241;51.828;19.574;2023-07-13T04:31:21;13.20;;;12.10;;
35056;SDS011;21241;51.828;19.574;2023-07-13T04:33:49;13.00;;;12.00;;
35056;SDS011;21241;51.828;19.574;2023-07-13T04:36:18;13.20;;;12.10;;
35056;SDS011;21241;51.828;19.574;2023-07-13T04:38:46;13.90;;;12.70;;
35056;SDS011;21241;51.828;19.574;2023-07-13T04:41:14;12.90;;;12.00;;
35056;SDS011;21241;51.828;19.574;2023-07-13T04:43:42;13.40;;;12.30;;
35056;SDS011;21241;51.828;19.574;2023-07-13T04:46:13;12.30;;;11.10;;
35056;SDS011;21241;51.828;19.574;2023-07-13T04:48:42;10.60;;;9.70;;
35056;SDS011;21241;51.828;19.574;2023-07-13T04:51:10;12.40;;;10.60;;
35056;SDS011;21241;51.828;19.574;2023-07-13T04:53:39;10.70;;;9.80;;
35056;SDS011;21241;51.828;19.574;2023-07-13T04:56:06;11.60;;;10.60;;
35056;SDS011;21241;51.828;19.574;2023-07-13T04:58:34;11.80;;;10.80;;
35056;SDS011;21241;51.828;19.574;2023-07-13T05:01:03;10.80;;;9.90;;
35056;SDS011;21241;51.828;19.574;2023-07-13T05:03:32;12.00;;;11.00;;
35056;SDS011;21241;51.828;19.574;2023-07-13T05:06:03;11.70;;;10.70;;
35056;SDS011;21241;51.828;19.574;2023-07-13T05:08:32;12.00;;;10.90;;
35056;SDS011;21241;51.828;19.574;2023-07-13T05:11:01;11.20;;;10.30;;
35056;SDS011;21241;51.828;19.574;2023-07-13T05:13:29;12.40;;;11.40;;
35056;SDS011;21241;51.828;19.574;2023-07-13T05:16:01;12.40;;;11.50;;
35056;SDS011;21241;51.828;19.574;2023-07-13T05:18:30;12.70;;;11.60;;
35056;SDS011;21241;51.828;19.574;2023-07-13T05:21:03;13.40;;;12.40;;
35056;SDS011;21241;51.828;19.574;2023-07-13T05:23:36;13.40;;;12.30;;
35056;SDS011;21241;51.828;19.574;2023-07-13T05:26:04;12.50;;;11.50;;
35056;SDS011;21241;51.828;19.574;2023-07-13T05:28:36;12.80;;;11.70;;
35056;SDS011;21241;51.828;19.574;2023-07-13T05:31:06;13.50;;;12.20;;
35056;SDS011;21241;51.828;19.574;2023-07-13T05:33:35;14.10;;;12.90;;
35056;SDS011;21241;51.828;19.574;2023-07-13T05:36:03;13.20;;;12.10;;
35056;SDS011;21241;51.828;19.574;2023-07-13T05:38:30;13.90;;;12.80;;
35056;SDS011;21241;51.828;19.574;2023-07-13T05:40:58;13.60;;;12.40;;
35056;SDS011;21241;51.828;19.574;2023-07-13T05:43:30;12.70;;;11.70;;
35056;SDS011;21241;51.828;19.574;2023-07-13T05:45:57;12.50;;;11.40;;
35056;SDS011;21241;51.828;19.574;2023-07-13T05:48:25;12.90;;;11.90;;
35056;SDS011;21241;51.828;19.574;2023-07-13T05:50:53;12.60;;;11.60;;
35056;SDS011;21241;51.828;19.574;2023-07-13T05:53:21;14.40;;;13.00;;
35056;SDS011;21241;51.828;19.574;2023-07-13T05:55:48;13.00;;;11.90;;
35056;SDS011;21241;51.828;19.574;2023-07-13T05:58:20;11.20;;;10.50;;
35056;SDS011;21241;51.828;19.574;2023-07-13T06:00:48;12.40;;;11.40;;
35056;SDS011;21241;51.828;19.574;2023-07-13T06:03:25;12.40;;;11.30;;
35056;SDS011;21241;51.828;19.574;2023-07-13T06:05:53;11.90;;;10.80;;
35056;SDS011;21241;51.828;19.574;2023-07-13T06:08:21;10.90;;;10.00;;
35056;SDS011;21241;51.828;19.574;2023-07-13T06:10:48;11.80;;;10.70;;
35056;SDS011;21241;51.828;19.574;2023-07-13T06:13:16;11.80;;;10.90;;
35056;SDS011;21241;51.828;19.574;2023-07-13T06:15:48;11.60;;;10.70;;
35056;SDS011;21241;51.828;19.574;2023-07-13T06:18:16;11.10;;;10.30;;
35056;SDS011;21241;51.828;19.574;2023-07-13T06:20:44;10.90;;;10.10;;
35056;SDS011;21241;51.828;19.574;2023-07-13T06:23:12;10.80;;;9.90;;
35056;SDS011;21241;51.828;19.574;2023-07-13T06:25:40;12.00;;;11.00;;
35056;SDS011;21241;51.828;19.574;2023-07-13T06:28:08;10.90;;;10.20;;
35056;SDS011;21241;51.828;19.574;2023-07-13T06:30:37;11.90;;;10.90;;
35056;SDS011;21241;51.828;19.574;2023-07-13T06:33:06;11.40;;;10.30;;
35056;SDS011;21241;51.828;19.574;2023-07-13T06:35:34;12.30;;;11.40;;
35056;SDS011;21241;51.828;19.574;2023-07-13T06:38:02;11.70;;;10.60;;
35056;SDS011;21241;51.828;19.574;2023-07-13T06:40:30;12.30;;;11.30;;
35056;SDS011;21241;51.828;19.574;2023-07-13T06:42:58;10.60;;;9.90;;
35056;SDS011;21241;51.828;19.574;2023-07-13T06:45:26;10.10;;;9.30;;
35056;SDS011;21241;51.828;19.574;2023-07-13T06:47:54;10.20;;;9.40;;
35056;SDS011;21241;51.828;19.574;2023-07-13T06:50:22;9.80;;;9.10;;
35056;SDS011;21241;51.828;19.574;2023-07-13T06:52:50;9.90;;;9.10;;
35056;SDS011;21241;51.828;19.574;2023-07-13T06:55:18;9.90;;;9.10;;
35056;SDS011;21241;51.828;19.574;2023-07-13T06:57:46;9.10;;;8.40;;
35056;SDS011;21241;51.828;19.574;2023-07-13T07:00:14;8.60;;;8.00;;
35056;SDS011;21241;51.828;19.574;2023-07-13T07:02:42;8.20;;;7.60;;
35056;SDS011;21241;51.828;19.574;2023-07-13T07:05:10;8.80;;;8.10;;
35056;SDS011;21241;51.828;19.574;2023-07-13T07:07:38;9.30;;;8.60;;
35056;SDS011;21241;51.828;19.574;2023-07-13T07:10:06;8.60;;;7.90;;
35056;SDS011;21241;51.828;19.574;2023-07-13T07:12:34;9.40;;;8.60;;
35056;SDS011;21241;51.828;19.574;2023-07-13T07:15:02;10.10;;;9.40;;
35056;SDS011;21241;51.828;19.574;2023-07-13T07:17:30;9.80;;;9.00;;
35056;SDS011;21241;51.828;19.574;2023-07-13T07:19:58;9.50;;;8.80;;
35056;SDS011;21241;51.828;19.574;2023-07-13T07:22:26;9.30;;;8.50;;
35056;SDS011;21241;51.828;19.574;2023-07-13T07:24:55;9.80;;;9.10;;
35056;SDS011;21241;51.828;19.574;2023-07-13T07:27:23;9.90;;;9.20;;
35056;SDS011;21241;51.828;19.574;2023-07-13T07:29:55;9.80;;;9.10;;
35056;SDS011;21241;51.828;19.574;2023-07-13T07:32:28;10.40;;;9.60;;
35056;SDS011;21241;51.828;19.574;2023-07-13T07:35:18;9.60;;;8.90;;
35056;SDS011;21241;51.828;19.574;2023-07-13T07:37:46;9.90;;;9.20;;
35056;SDS011;21241;51.828;19.574;2023-07-13T07:40:18;9.40;;;8.70;;
35056;SDS011;21241;51.828;19.574;2023-07-13T07:42:49;9.50;;;8.70;;
35056;SDS011;21241;51.828;19.574;2023-07-13T07:45:17;9.50;;;8.80;;
35056;SDS011;21241;51.828;19.574;2023-07-13T07:47:45;8.60;;;8.00;;
35056;SDS011;21241;51.828;19.574;2023-07-13T07:50:13;9.20;;;8.50;;
35056;SDS011;21241;51.828;19.574;2023-07-13T07:52:41;9.10;;;8.40;;
35056;SDS011;21241;51.828;19.574;2023-07-13T07:55:09;10.20;;;9.40;;
35056;SDS011;21241;51.828;19.574;2023-07-13T07:57:40;9.60;;;9.00;;
35056;SDS011;21241;51.828;19.574;2023-07-13T08:00:11;8.60;;;8.00;;
35056;SDS011;21241;51.828;19.574;2023-07-13T08:02:43;8.50;;;7.60;;
35056;SDS011;21241;51.828;19.574;2023-07-13T08:05:14;8.40;;;7.60;;
35056;SDS011;21241;51.828;19.574;2023-07-13T08:07:45;8.10;;;7.50;;
35056;SDS011;21241;51.828;19.574;2023-07-13T08:10:13;7.30;;;6.80;;
35056;SDS011;21241;51.828;19.574;2023-07-13T08:12:40;7.30;;;6.80;;
35056;SDS011;21241;51.828;19.574;2023-07-13T08:15:13;7.50;;;6.90;;
35056;SDS011;21241;51.828;19.574;2023-07-13T08:17:42;7.40;;;6.90;;
35056;SDS011;21241;51.828;19.574;2023-07-13T08:20:12;7.90;;;7.30;;
35056;SDS011;21241;51.828;19.574;2023-07-13T08:22:40;7.30;;;6.70;;
35056;SDS011;21241;51.828;19.574;2023-07-13T08:25:08;7.20;;;6.70;;
35056;SDS011;21241;51.828;19.574;2023-07-13T08:27:36;7.50;;;7.00;;
35056;SDS011;21241;51.828;19.574;2023-07-13T08:30:04;7.30;;;6.90;;
35056;SDS011;21241;51.828;19.574;2023-07-13T08:32:33;7.60;;;7.10;;
35056;SDS011;21241;51.828;19.574;2023-07-13T08:35:01;8.00;;;7.40;;
35056;SDS011;21241;51.828;19.574;2023-07-13T08:37:28;9.20;;;8.50;;
35056;SDS011;21241;51.828;19.574;2023-07-13T08:39:56;12.70;;;11.60;;
35056;SDS011;21241;51.828;19.574;2023-07-13T08:42:36;13.40;;;12.30;;
35056;SDS011;21241;51.828;19.574;2023-07-13T08:45:12;15.10;;;14.00;;
35056;SDS011;21241;51.828;19.574;2023-07-13T08:47:55;16.70;;;15.40;;
35056;SDS011;21241;51.828;19.574;2023-07-13T08:50:48;15.60;;;14.30;;
35056;SDS011;21241;51.828;19.574;2023-07-13T08:53:31;15.80;;;14.40;;
35056;SDS011;21241;51.828;19.574;2023-07-13T08:56:04;15.80;;;14.70;;
35056;SDS011;21241;51.828;19.574;2023-07-13T08:58:37;15.30;;;14.00;;
35056;SDS011;21241;51.828;19.574;2023-07-13T09:01:15;14.30;;;13.10;;
35056;SDS011;21241;51.828;19.574;2023-07-13T09:03:54;13.70;;;12.80;;
35056;SDS011;21241;51.828;19.574;2023-07-13T09:06:28;14.60;;;13.40;;
35056;SDS011;21241;51.828;19.574;2023-07-13T09:09:03;13.30;;;12.20;;
35056;SDS011;21241;51.828;19.574;2023-07-13T09:14:49;13.20;;;12.20;;
35056;SDS011;21241;51.828;19.574;2023-07-13T09:17:22;12.00;;;11.10;;
35056;SDS011;21241;51.828;19.574;2023-07-13T09:20:00;11.70;;;10.90;;
35056;SDS011;21241;51.828;19.574;2023-07-13T09:22:32;11.80;;;10.80;;
35056;SDS011;21241;51.828;19.574;2023-07-13T09:25:04;11.80;;;10.90;;
35056;SDS011;21241;51.828;19.574;2023-07-13T09:27:35;12.10;;;11.20;;
35056;SDS011;21241;51.828;19.574;2023-07-13T09:30:16;11.60;;;10.70;;
35056;SDS011;21241;51.828;19.574;2023-07-13T09:32:51;10.90;;;10.10;;
35056;SDS011;21241;51.828;19.574;2023-07-13T09:35:22;11.30;;;10.40;;
35056;SDS011;21241;51.828;19.574;2023-07-13T09:38:14;10.80;;;9.90;;
35056;SDS011;21241;51.828;19.574;2023-07-13T09:41:01;11.00;;;10.10;;
35056;SDS011;21241;51.828;19.574;2023-07-13T09:43:30;11.10;;;10.30;;
35056;SDS011;21241;51.828;19.574;2023-07-13T09:45:58;10.40;;;9.60;;
35056;SDS011;21241;51.828;19.574;2023-07-13T09:48:33;10.20;;;9.20;;
35056;SDS011;21241;51.828;19.574;2023-07-13T09:51:06;9.60;;;8.70;;
35056;SDS011;21241;51.828;19.574;2023-07-13T09:53:44;9.50;;;8.90;;
35056;SDS011;21241;51.828;19.574;2023-07-13T09:56:28;8.30;;;7.60;;
35056;SDS011;21241;51.828;19.574;2023-07-13T09:58:57;8.00;;;7.40;;
35056;SDS011;21241;51.828;19.574;2023-07-13T10:01:32;8.30;;;7.70;;
35056;SDS011;21241;51.828;19.574;2023-07-13T10:04:02;8.20;;;7.50;;
35056;SDS011;21241;51.828;19.574;2023-07-13T10:06:30;8.70;;;7.90;;
35056;SDS011;21241;51.828;19.574;2023-07-13T10:08:58;9.00;;;8.30;;
35056;SDS011;21241;51.828;19.574;2023-07-13T10:11:27;8.40;;;7.70;;
35056;SDS011;21241;51.828;19.574;2023-07-13T10:13:58;9.20;;;8.50;;
35056;SDS011;21241;51.828;19.574;2023-07-13T10:16:39;8.60;;;7.80;;
35056;SDS011;21241;51.828;19.574;2023-07-13T10:19:10;9.50;;;8.80;;
35056;SDS011;21241;51.828;19.574;2023-07-13T10:21:50;10.20;;;9.40;;
35056;SDS011;21241;51.828;19.574;2023-07-13T10:24:24;11.00;;;10.10;;
35056;SDS011;21241;51.828;19.574;2023-07-13T10:29:35;9.70;;;8.90;;
35056;SDS011;21241;51.828;19.574;2023-07-13T10:32:11;9.50;;;8.90;;
35056;SDS011;21241;51.828;19.574;2023-07-13T10:34:41;9.70;;;9.00;;
35056;SDS011;21241;51.828;19.574;2023-07-13T10:37:17;10.10;;;9.30;;
35056;SDS011;21241;51.828;19.574;2023-07-13T10:39:48;10.00;;;9.30;;
35056;SDS011;21241;51.828;19.574;2023-07-13T10:42:25;13.70;;;9.90;;
35056;SDS011;21241;51.828;19.574;2023-07-13T10:44:56;11.10;;;10.20;;
35056;SDS011;21241;51.828;19.574;2023-07-13T10:47:23;9.40;;;8.70;;
35056;SDS011;21241;51.828;19.574;2023-07-13T10:49:54;9.50;;;8.90;;
35056;SDS011;21241;51.828;19.574;2023-07-13T10:58:13;9.40;;;8.60;;
35056;SDS011;21241;51.828;19.574;2023-07-13T11:03:29;8.70;;;8.00;;
35056;SDS011;21241;51.828;19.574;2023-07-13T11:06:07;8.40;;;7.80;;
35056;SDS011;21241;51.828;19.574;2023-07-13T11:18:52;7.30;;;6.80;;
35056;SDS011;21241;51.828;19.574;2023-07-13T11:21:29;7.40;;;6.80;;
35056;SDS011;21241;51.828;19.574;2023-07-13T11:24:04;7.40;;;6.30;;
35056;SDS011;21241;51.828;19.574;2023-07-13T11:31:42;7.10;;;6.60;;
35056;SDS011;21241;51.828;19.574;2023-07-13T11:34:13;7.60;;;7.00;;
35056;SDS011;21241;51.828;19.574;2023-07-13T11:36:43;7.50;;;6.90;;
35056;SDS011;21241;51.828;19.574;2023-07-13T11:39:19;6.70;;;6.20;;
35056;SDS011;21241;51.828;19.574;2023-07-13T11:41:55;7.00;;;6.40;;
35056;SDS011;21241;51.828;19.574;2023-07-13T11:44:25;6.70;;;6.20;;
35056;SDS011;21241;51.828;19.574;2023-07-13T11:46:57;6.30;;;5.70;;
35056;SDS011;21241;51.828;19.574;2023-07-13T11:49:32;6.40;;;5.90;;
35056;SDS011;21241;51.828;19.574;2023-07-13T11:52:16;5.50;;;5.00;;
35056;SDS011;21241;51.828;19.574;2023-07-13T11:54:48;5.90;;;5.50;;
35056;SDS011;21241;51.828;19.574;2023-07-13T11:57:27;6.10;;;5.40;;
35056;SDS011;21241;51.828;19.574;2023-07-13T11:59:59;5.40;;;5.00;;
35056;SDS011;21241;51.828;19.574;2023-07-13T12:02:33;5.50;;;5.00;;
35056;SDS011;21241;51.828;19.574;2023-07-13T12:05:04;5.70;;;5.10;;
35056;SDS011;21241;51.828;19.574;2023-07-13T12:07:33;5.40;;;5.00;;
35056;SDS011;21241;51.828;19.574;2023-07-13T12:10:04;5.50;;;5.10;;
35056;SDS011;21241;51.828;19.574;2023-07-13T12:12:40;6.10;;;5.60;;
35056;SDS011;21241;51.828;19.574;2023-07-13T12:15:15;5.30;;;4.90;;
35056;SDS011;21241;51.828;19.574;2023-07-13T12:17:43;5.00;;;4.60;;
35056;SDS011;21241;51.828;19.574;2023-07-13T12:20:17;5.70;;;4.90;;
35056;SDS011;21241;51.828;19.574;2023-07-13T12:22:49;6.80;;;5.70;;
35056;SDS011;21241;51.828;19.574;2023-07-13T12:25:18;5.20;;;4.80;;
35056;SDS011;21241;51.828;19.574;2023-07-13T12:27:48;6.00;;;5.50;;
35056;SDS011;21241;51.828;19.574;2023-07-13T12:30:27;5.60;;;5.20;;
35056;SDS011;21241;51.828;19.574;2023-07-13T12:33:10;6.60;;;6.00;;
35056;SDS011;21241;51.828;19.574;2023-07-13T12:35:51;6.20;;;5.70;;
35056;SDS011;21241;51.828;19.574;2023-07-13T12:38:20;8.90;;;8.30;;
35056;SDS011;21241;51.828;19.574;2023-07-13T12:40:50;6.90;;;6.30;;
35056;SDS011;21241;51.828;19.574;2023-07-13T12:43:22;7.10;;;6.50;;
35056;SDS011;21241;51.828;19.574;2023-07-13T12:46:04;6.70;;;6.10;;
35056;SDS011;21241;51.828;19.574;2023-07-13T12:48:39;7.40;;;6.90;;
35056;SDS011;21241;51.828;19.574;2023-07-13T12:51:20;6.50;;;6.00;;
35056;SDS011;21241;51.828;19.574;2023-07-13T12:53:50;6.50;;;5.80;;
35056;SDS011;21241;51.828;19.574;2023-07-13T12:56:26;6.70;;;6.10;;
35056;SDS011;21241;51.828;19.574;2023-07-13T12:58:57;6.50;;;5.90;;
35056;SDS011;21241;51.828;19.574;2023-07-13T13:01:28;6.60;;;6.00;;
35056;SDS011;21241;51.828;19.574;2023-07-13T13:04:00;7.10;;;6.40;;
35056;SDS011;21241;51.828;19.574;2023-07-13T13:06:29;7.20;;;5.90;;
35056;SDS011;21241;51.828;19.574;2023-07-13T13:08:58;6.30;;;5.70;;
35056;SDS011;21241;51.828;19.574;2023-07-13T13:11:29;6.50;;;5.90;;
35056;SDS011;21241;51.828;19.574;2023-07-13T13:13:58;5.70;;;5.30;;
35056;SDS011;21241;51.828;19.574;2023-07-13T13:18:55;5.70;;;5.30;;
35056;SDS011;21241;51.828;19.574;2023-07-13T13:21:26;7.20;;;6.60;;
35056;SDS011;21241;51.828;19.574;2023-07-13T13:23:54;6.20;;;5.70;;
35056;SDS011;21241;51.828;19.574;2023-07-13T13:26:23;5.90;;;5.40;;
35056;SDS011;21241;51.828;19.574;2023-07-13T13:28:51;6.10;;;5.50;;
35056;SDS011;21241;51.828;19.574;2023-07-13T13:31:18;6.70;;;6.10;;
35056;SDS011;21241;51.828;19.574;2023-07-13T13:33:46;6.10;;;5.60;;
35056;SDS011;21241;51.828;19.574;2023-07-13T13:36:16;6.40;;;5.90;;
35056;SDS011;21241;51.828;19.574;2023-07-13T13:38:48;6.10;;;5.50;;
35056;SDS011;21241;51.828;19.574;2023-07-13T13:41:17;5.90;;;5.40;;
35056;SDS011;21241;51.828;19.574;2023-07-13T13:43:45;5.90;;;5.50;;
35056;SDS011;21241;51.828;19.574;2023-07-13T13:46:15;5.90;;;5.50;;
35056;SDS011;21241;51.828;19.574;2023-07-13T13:48:45;6.30;;;5.80;;
35056;SDS011;21241;51.828;19.574;2023-07-13T13:51:17;5.60;;;5.20;;
35056;SDS011;21241;51.828;19.574;2023-07-13T13:53:47;6.20;;;5.60;;
35056;SDS011;21241;51.828;19.574;2023-07-13T13:56:17;6.60;;;6.00;;
35056;SDS011;21241;51.828;19.574;2023-07-13T13:58:45;6.80;;;6.20;;
35056;SDS011;21241;51.828;19.574;2023-07-13T14:01:18;7.00;;;6.50;;
35056;SDS011;21241;51.828;19.574;2023-07-13T14:03:48;7.60;;;7.00;;
35056;SDS011;21241;51.828;19.574;2023-07-13T14:06:16;7.50;;;6.80;;
35056;SDS011;21241;51.828;19.574;2023-07-13T14:08:44;7.70;;;7.10;;
35056;SDS011;21241;51.828;19.574;2023-07-13T14:11:15;6.60;;;6.20;;
35056;SDS011;21241;51.828;19.574;2023-07-13T14:13:45;6.40;;;5.90;;
35056;SDS011;21241;51.828;19.574;2023-07-13T14:16:18;5.80;;;5.40;;
35056;SDS011;21241;51.828;19.574;2023-07-13T14:18:48;6.60;;;6.10;;
35056;SDS011;21241;51.828;19.574;2023-07-13T14:21:17;6.40;;;6.00;;
35056;SDS011;21241;51.828;19.574;2023-07-13T14:23:47;6.40;;;6.00;;
35056;SDS011;21241;51.828;19.574;2023-07-13T14:26:19;6.50;;;6.00;;
35056;SDS011;21241;51.828;19.574;2023-07-13T14:28:49;6.40;;;5.90;;
35056;SDS011;21241;51.828;19.574;2023-07-13T14:31:18;6.40;;;5.90;;
35056;SDS011;21241;51.828;19.574;2023-07-13T14:33:46;8.10;;;7.40;;
35056;SDS011;21241;51.828;19.574;2023-07-13T14:36:23;6.60;;;6.10;;
35056;SDS011;21241;51.828;19.574;2023-07-13T14:38:53;7.60;;;7.00;;
35056;SDS011;21241;51.828;19.574;2023-07-13T14:41:21;6.80;;;6.30;;
35056;SDS011;21241;51.828;19.574;2023-07-13T14:43:49;7.10;;;6.60;;
35056;SDS011;21241;51.828;19.574;2023-07-13T14:46:20;6.50;;;6.00;;
35056;SDS011;21241;51.828;19.574;2023-07-13T14:48:59;6.80;;;6.30;;
35056;SDS011;21241;51.828;19.574;2023-07-13T14:51:30;7.30;;;6.70;;
35056;SDS011;21241;51.828;19.574;2023-07-13T14:54:01;7.90;;;7.40;;
35056;SDS011;21241;51.828;19.574;2023-07-13T14:56:30;7.60;;;7.00;;
35056;SDS011;21241;51.828;19.574;2023-07-13T14:58:58;7.80;;;7.30;;
35056;SDS011;21241;51.828;19.574;2023-07-13T15:01:26;8.00;;;7.30;;
35056;SDS011;21241;51.828;19.574;2023-07-13T15:03:54;7.50;;;7.00;;
35056;SDS011;21241;51.828;19.574;2023-07-13T15:06:22;7.50;;;7.00;;
35056;SDS011;21241;51.828;19.574;2023-07-13T15:08:50;7.90;;;7.40;;
35056;SDS011;21241;51.828;19.574;2023-07-13T15:11:17;8.00;;;7.40;;
35056;SDS011;21241;51.828;19.574;2023-07-13T15:13:45;7.80;;;7.30;;
35056;SDS011;21241;51.828;19.574;2023-07-13T15:16:18;7.50;;;6.90;;